createdAt,value
2022-07-31T00:00:43.341Z,38.10
2022-07-31T00:03:45.355Z,37.90
2022-07-31T00:06:47.597Z,37.60
2022-07-31T00:09:54.500Z,37.20
2022-07-31T00:12:56.922Z,37.40
2022-07-31T00:15:58.932Z,37.20
2022-07-31T00:19:01.351Z,37.20
2022-07-31T00:22:03.494Z,37.10
2022-07-31T00:25:06.515Z,37.10
2022-07-31T00:28:08.526Z,36.90
2022-07-31T00:31:10.668Z,36.80
2022-07-31T00:34:12.657Z,36.80
2022-07-31T00:37:14.823Z,36.60
2022-07-31T00:40:17.484Z,36.60
2022-07-31T00:43:19.719Z,36.40
2022-07-31T00:46:21.660Z,36.40
2022-07-31T00:49:25.432Z,36.30
2022-07-31T00:52:27.475Z,36.20
2022-07-31T00:55:30.023Z,36.10
2022-07-31T00:58:33.069Z,36.20
2022-07-31T01:01:35.250Z,36.10
2022-07-31T01:04:37.392Z,36.20
2022-07-31T01:07:43.925Z,36.20
2022-07-31T01:11:03.829Z,36.10
2022-07-31T01:14:07.913Z,36.30
2022-07-31T01:17:10.755Z,36.50
2022-07-31T01:20:14.161Z,36.40
2022-07-31T01:23:50.412Z,36.40
2022-07-31T01:27:06.190Z,36.50
2022-07-31T01:30:08.648Z,36.40
2022-07-31T01:33:17.621Z,36.50
2022-07-31T01:36:27.038Z,36.60
2022-07-31T01:39:34.263Z,36.80
2022-07-31T01:42:41.200Z,36.80
2022-07-31T01:45:46.174Z,37.00
2022-07-31T01:48:49.856Z,37.10
2022-07-31T01:51:53.212Z,37.80
2022-07-31T01:54:58.778Z,37.40
2022-07-31T01:58:02.386Z,37.40
2022-07-31T02:01:08.251Z,37.30
2022-07-31T02:04:12.355Z,37.00
2022-07-31T02:07:16.265Z,37.10
2022-07-31T02:10:20.213Z,36.70
2022-07-31T02:13:23.873Z,36.60
2022-07-31T02:16:27.679Z,36.90
2022-07-31T02:19:31.208Z,36.90
2022-07-31T02:22:34.967Z,36.90
2022-07-31T02:25:37.905Z,37.00
2022-07-31T02:28:43.794Z,36.70
2022-07-31T02:31:48.348Z,36.80
2022-07-31T02:35:06.239Z,36.90
2022-07-31T02:38:13.539Z,36.80
2022-07-31T02:41:26.392Z,37.00
2022-07-31T02:44:31.794Z,36.70
2022-07-31T02:47:34.557Z,36.50
2022-07-31T02:50:37.761Z,36.50
2022-07-31T02:53:40.076Z,36.60
2022-07-31T02:56:43.215Z,36.40
2022-07-31T02:59:45.341Z,36.40
2022-07-31T03:02:47.831Z,36.60
2022-07-31T03:05:50.042Z,36.40
2022-07-31T03:08:52.019Z,36.70
2022-07-31T03:11:54.364Z,36.30
2022-07-31T03:14:57.749Z,36.40
2022-07-31T03:18:00.636Z,36.50
2022-07-31T03:21:02.859Z,36.40
2022-07-31T03:24:05.266Z,36.20
2022-07-31T03:27:07.247Z,36.70
2022-07-31T03:30:16.760Z,36.30
2022-07-31T03:33:18.951Z,37.20
2022-07-31T03:36:21.060Z,37.30
2022-07-31T03:39:23.217Z,36.90
2022-07-31T03:42:26.808Z,36.60
2022-07-31T03:45:30.568Z,36.20
2022-07-31T03:48:32.796Z,36.30
2022-07-31T03:51:34.880Z,36.20
2022-07-31T03:54:37.037Z,36.10
2022-07-31T03:57:39.964Z,36.10
2022-07-31T04:00:44.585Z,36.00
2022-07-31T04:03:46.551Z,35.70
2022-07-31T04:06:48.791Z,35.40
2022-07-31T04:09:50.809Z,35.20
2022-07-31T04:12:53.146Z,35.40
2022-07-31T04:15:55.526Z,35.40
2022-07-31T04:18:57.900Z,35.30
2022-07-31T04:22:00.784Z,35.40
2022-07-31T04:25:03.347Z,35.20
2022-07-31T04:28:05.289Z,35.20
2022-07-31T04:31:07.421Z,35.40
2022-07-31T04:34:09.450Z,35.40
2022-07-31T04:37:11.564Z,35.40
2022-07-31T04:40:13.517Z,35.50
2022-07-31T04:43:16.996Z,35.80
2022-07-31T04:46:19.108Z,36.10
2022-07-31T04:49:21.250Z,36.30
2022-07-31T04:52:23.207Z,36.50
2022-07-31T04:55:25.480Z,36.30
2022-07-31T04:58:27.418Z,35.60
2022-07-31T05:01:29.709Z,35.80
2022-07-31T05:04:31.663Z,36.00
2022-07-31T05:07:34.695Z,35.50
2022-07-31T05:10:55.484Z,35.30
2022-07-31T05:14:00.394Z,35.00
2022-07-31T05:17:02.365Z,35.10
2022-07-31T05:20:05.108Z,35.60
2022-07-31T05:23:07.150Z,35.80
2022-07-31T05:26:10.171Z,35.20
2022-07-31T05:29:12.198Z,35.60
2022-07-31T05:32:14.752Z,35.30
2022-07-31T05:35:16.861Z,35.80
2022-07-31T05:38:18.995Z,36.50
2022-07-31T05:41:21.295Z,36.70
2022-07-31T05:44:23.495Z,37.30
2022-07-31T05:47:25.481Z,37.10
2022-07-31T05:50:47.173Z,37.00
2022-07-31T05:53:49.228Z,37.30
2022-07-31T05:56:51.453Z,37.80
2022-07-31T05:59:53.508Z,36.90
2022-07-31T06:02:56.542Z,36.40
2022-07-31T06:05:58.553Z,35.90
2022-07-31T06:09:04.463Z,36.40
2022-07-31T06:12:07.222Z,36.20
2022-07-31T06:15:10.058Z,36.50
2022-07-31T06:18:14.567Z,36.20
2022-07-31T06:24:17.643Z,36.80
2022-07-31T06:27:33.515Z,36.70
2022-07-31T06:30:36.288Z,37.00
2022-07-31T06:33:38.416Z,36.90
2022-07-31T06:36:40.396Z,37.40
2022-07-31T06:39:55.659Z,37.70
2022-07-31T06:42:58.427Z,37.80
2022-07-31T06:46:00.614Z,37.50
2022-07-31T06:49:06.798Z,36.80
2022-07-31T06:52:11.117Z,36.80
2022-07-31T06:55:13.101Z,37.20
2022-07-31T06:58:15.333Z,37.70
2022-07-31T07:01:17.412Z,38.20
2022-07-31T07:04:19.573Z,38.00
2022-07-31T07:07:21.558Z,38.40
2022-07-31T07:10:23.876Z,38.20
2022-07-31T07:13:45.120Z,38.20
2022-07-31T07:16:48.690Z,37.70
2022-07-31T07:19:54.787Z,36.70
2022-07-31T07:22:57.821Z,37.80
2022-07-31T07:25:59.820Z,37.50
2022-07-31T07:29:02.596Z,38.60
2022-07-31T07:32:05.211Z,37.80
2022-07-31T07:35:09.315Z,37.00
2022-07-31T07:38:11.282Z,36.70
2022-07-31T07:41:13.471Z,36.90
2022-07-31T07:44:20.559Z,35.90
2022-07-31T07:47:22.914Z,36.10
2022-07-31T07:50:26.935Z,35.40
2022-07-31T07:53:31.504Z,33.90
2022-07-31T07:56:33.534Z,34.10
2022-07-31T07:59:35.661Z,33.60
2022-07-31T08:02:37.958Z,33.10
2022-07-31T08:05:40.131Z,33.00
2022-07-31T08:08:42.182Z,33.70
2022-07-31T08:11:44.854Z,34.20
2022-07-31T08:14:46.841Z,33.30
2022-07-31T08:17:48.965Z,33.20
2022-07-31T08:20:50.988Z,34.70
2022-07-31T08:23:53.128Z,32.70
2022-07-31T08:27:13.668Z,32.70
2022-07-31T08:30:17.727Z,32.20
2022-07-31T08:33:20.073Z,31.80
2022-07-31T08:36:22.641Z,31.70
2022-07-31T08:39:25.124Z,31.40
2022-07-31T08:42:27.296Z,31.60
2022-07-31T08:45:29.481Z,31.70
2022-07-31T08:48:33.310Z,31.20
2022-07-31T08:51:51.388Z,31.90
2022-07-31T08:54:55.173Z,33.00
2022-07-31T08:57:57.262Z,32.40
2022-07-31T09:01:00.116Z,32.90
2022-07-31T09:04:02.554Z,35.30
2022-07-31T09:07:05.654Z,36.20
2022-07-31T09:10:19.730Z,35.40
2022-07-31T09:13:22.010Z,36.70
2022-07-31T09:16:30.373Z,37.00
2022-07-31T09:19:54.257Z,35.20
2022-07-31T09:23:08.017Z,35.30
2022-07-31T09:26:10.413Z,35.30
2022-07-31T09:29:12.969Z,34.60
2022-07-31T09:32:17.889Z,35.00
2022-07-31T09:35:19.933Z,34.80
2022-07-31T09:38:29.053Z,35.40
2022-07-31T09:41:56.637Z,33.50
2022-07-31T09:44:53.330Z,33.60
2022-07-31T09:48:14.368Z,33.50
2022-07-31T09:51:19.621Z,34.90
2022-07-31T09:54:24.482Z,34.60
2022-07-31T09:57:26.730Z,35.00
2022-07-31T10:00:29.328Z,34.80
2022-07-31T10:03:32.356Z,36.30
2022-07-31T10:06:36.057Z,35.10
2022-07-31T10:09:40.394Z,33.20
2022-07-31T10:12:46.703Z,32.60
2022-07-31T10:15:52.056Z,31.70
2022-07-31T10:19:01.298Z,31.40
2022-07-31T10:22:05.336Z,32.50
2022-07-31T10:25:09.659Z,31.80
2022-07-31T10:28:12.796Z,31.60
2022-07-31T10:31:15.582Z,31.00
2022-07-31T10:34:18.292Z,30.70
2022-07-31T10:37:35.074Z,31.50
2022-07-31T10:40:51.086Z,31.90
2022-07-31T10:44:00.865Z,30.00
2022-07-31T10:47:16.507Z,29.50
2022-07-31T10:50:26.998Z,30.80
2022-07-31T10:53:50.258Z,29.80
2022-07-31T10:56:52.027Z,29.70
2022-07-31T10:59:54.456Z,29.40
2022-07-31T11:02:56.409Z,29.50
2022-07-31T11:06:01.336Z,27.80
2022-07-31T11:09:04.767Z,28.90
2022-07-31T11:12:18.484Z,29.00
2022-07-31T11:15:27.785Z,28.40
2022-07-31T11:18:34.415Z,28.40
2022-07-31T11:21:40.213Z,29.20
2022-07-31T11:24:42.533Z,29.00
2022-07-31T11:27:44.544Z,28.30
2022-07-31T11:30:59.700Z,28.40
2022-07-31T11:34:04.149Z,28.10
2022-07-31T11:37:07.561Z,28.20
2022-07-31T11:40:10.127Z,27.60
2022-07-31T11:43:28.717Z,27.80
2022-07-31T11:46:34.805Z,27.40
2022-07-31T11:49:47.689Z,27.60
2022-07-31T11:53:01.498Z,27.20
2022-07-31T11:56:04.100Z,27.60
2022-07-31T11:59:06.339Z,28.60
2022-07-31T12:02:13.264Z,27.60
2022-07-31T12:05:15.463Z,27.90
2022-07-31T12:08:18.106Z,26.80
2022-07-31T12:11:21.202Z,27.80
2022-07-31T12:14:39.858Z,28.10
2022-07-31T12:17:42.020Z,28.50
2022-07-31T12:20:52.736Z,27.60
2022-07-31T12:23:54.647Z,27.80
2022-07-31T12:27:00.360Z,27.40
2022-07-31T12:30:13.786Z,27.00
2022-07-31T12:33:15.948Z,27.80
2022-07-31T12:36:18.052Z,26.50
2022-07-31T12:39:20.195Z,26.50
2022-07-31T12:42:30.216Z,27.20
2022-07-31T12:45:38.299Z,27.10
2022-07-31T12:48:44.406Z,28.00
2022-07-31T12:51:48.316Z,27.30
2022-07-31T12:54:50.618Z,27.30
2022-07-31T12:57:53.158Z,26.60
2022-07-31T13:00:57.100Z,27.10
2022-07-31T13:03:59.572Z,27.10
2022-07-31T13:07:02.203Z,27.10
2022-07-31T13:10:21.012Z,26.40
2022-07-31T13:13:25.591Z,26.10
2022-07-31T13:16:27.918Z,24.90
2022-07-31T13:19:31.311Z,24.50
2022-07-31T13:22:33.539Z,25.70
2022-07-31T13:25:35.515Z,25.10
2022-07-31T13:28:37.740Z,25.00
2022-07-31T13:31:39.811Z,24.90
2022-07-31T13:34:42.170Z,24.50
2022-07-31T13:37:44.150Z,25.60
2022-07-31T13:41:05.117Z,24.20
2022-07-31T13:44:07.448Z,25.00
2022-07-31T13:47:09.633Z,23.30
2022-07-31T13:50:11.819Z,24.90
2022-07-31T13:53:13.969Z,25.30
2022-07-31T13:56:34.073Z,26.00
2022-07-31T13:59:38.923Z,25.70
2022-07-31T14:02:44.477Z,26.20
2022-07-31T14:05:46.753Z,25.20
2022-07-31T14:08:50.883Z,23.50
2022-07-31T14:11:53.108Z,23.70
2022-07-31T14:15:07.357Z,24.10
2022-07-31T14:18:09.644Z,24.20
2022-07-31T14:21:11.870Z,23.50
2022-07-31T14:24:18.773Z,23.70
2022-07-31T14:27:20.809Z,23.60
2022-07-31T14:30:23.033Z,24.30
2022-07-31T14:33:25.117Z,24.90
2022-07-31T14:36:27.413Z,24.60
2022-07-31T14:39:29.375Z,24.60
2022-07-31T14:42:31.923Z,24.60
2022-07-31T14:45:51.216Z,24.10
2022-07-31T14:48:54.255Z,23.30
2022-07-31T14:51:56.266Z,23.40
2022-07-31T14:55:00.947Z,23.20
2022-07-31T14:58:10.391Z,23.00
2022-07-31T15:01:13.436Z,23.70
2022-07-31T15:04:20.234Z,24.50
2022-07-31T15:07:41.246Z,23.80
2022-07-31T15:10:49.634Z,22.70
2022-07-31T15:13:51.644Z,22.40
2022-07-31T15:16:53.817Z,22.60
2022-07-31T15:19:55.805Z,22.30
2022-07-31T15:22:58.202Z,22.90
2022-07-31T15:26:00.198Z,22.80
2022-07-31T15:29:02.371Z,22.80
2022-07-31T15:32:04.697Z,22.80
2022-07-31T15:35:09.521Z,22.90
2022-07-31T15:38:11.474Z,23.50
2022-07-31T15:41:13.663Z,23.20
2022-07-31T15:44:21.067Z,24.10
2022-07-31T15:47:23.546Z,22.80
2022-07-31T15:50:25.664Z,23.50
2022-07-31T15:53:34.084Z,24.70
2022-07-31T15:56:41.279Z,24.10
2022-07-31T15:59:43.668Z,24.10
2022-07-31T16:02:45.876Z,24.20
2022-07-31T16:05:55.732Z,24.50
2022-07-31T16:08:58.296Z,25.00
2022-07-31T16:12:04.249Z,24.70
2022-07-31T16:15:08.171Z,24.70
2022-07-31T16:18:18.450Z,24.30
2022-07-31T16:21:20.796Z,24.00
2022-07-31T16:24:22.982Z,24.50
2022-07-31T16:27:26.215Z,24.60
2022-07-31T16:30:28.532Z,24.30
2022-07-31T16:33:30.477Z,24.00
2022-07-31T16:36:32.847Z,24.10
2022-07-31T16:39:34.821Z,24.10
2022-07-31T16:42:37.234Z,24.60
2022-07-31T16:45:39.376Z,25.10
2022-07-31T16:48:41.801Z,24.70
2022-07-31T16:51:43.810Z,24.60
2022-07-31T16:54:46.526Z,24.70
2022-07-31T16:57:48.487Z,24.60
2022-07-31T17:00:51.603Z,24.70
2022-07-31T17:04:00.824Z,24.20
2022-07-31T17:07:04.655Z,24.40
2022-07-31T17:10:07.381Z,24.00
2022-07-31T17:13:09.502Z,24.10
2022-07-31T17:16:11.435Z,23.80
2022-07-31T17:19:13.613Z,24.10
2022-07-31T17:22:17.698Z,23.90
2022-07-31T17:25:21.851Z,24.50
2022-07-31T17:28:23.864Z,24.80
2022-07-31T17:31:26.033Z,24.80
2022-07-31T17:34:28.077Z,24.50
2022-07-31T17:37:30.212Z,24.60
2022-07-31T17:40:44.345Z,24.60
2022-07-31T17:43:50.508Z,24.80
2022-07-31T17:46:55.420Z,24.50
2022-07-31T17:50:00.369Z,24.80
2022-07-31T17:53:02.734Z,24.80
2022-07-31T17:56:05.400Z,25.00
2022-07-31T17:59:07.374Z,25.20
2022-07-31T18:02:10.224Z,25.40
2022-07-31T18:05:12.550Z,24.80
2022-07-31T18:08:14.830Z,25.10
2022-07-31T18:11:17.245Z,24.90
2022-07-31T18:14:20.497Z,25.00
2022-07-31T18:17:28.402Z,25.50
2022-07-31T18:20:30.697Z,26.00
2022-07-31T18:23:32.838Z,25.80
2022-07-31T18:26:36.089Z,26.40
2022-07-31T18:29:38.245Z,26.60
2022-07-31T18:32:40.731Z,27.90
2022-07-31T18:35:46.217Z,27.20
2022-07-31T18:38:48.716Z,28.00
2022-07-31T18:41:51.081Z,27.90
2022-07-31T18:44:53.587Z,28.40
2022-07-31T18:47:55.722Z,28.50
2022-07-31T18:51:04.527Z,28.50
2022-07-31T18:54:06.991Z,28.30
2022-07-31T18:57:09.218Z,28.50
2022-07-31T19:00:11.627Z,28.70
2022-07-31T19:03:13.778Z,29.00
2022-07-31T19:06:16.206Z,28.90
2022-07-31T19:09:19.711Z,28.80
2022-07-31T19:12:21.827Z,27.50
2022-07-31T19:15:24.069Z,27.20
2022-07-31T19:18:28.799Z,27.30
2022-07-31T19:21:41.603Z,27.50
2022-07-31T19:24:44.965Z,27.50
2022-07-31T19:27:50.228Z,27.70
2022-07-31T19:30:53.457Z,28.00
2022-07-31T19:33:55.603Z,28.20
2022-07-31T19:36:57.530Z,28.20
2022-07-31T19:39:59.802Z,28.40
2022-07-31T19:43:02.723Z,28.40
2022-07-31T19:46:11.305Z,28.50
2022-07-31T19:49:14.639Z,28.70
2022-07-31T19:52:16.922Z,29.10
2022-07-31T19:55:18.847Z,28.60
2022-07-31T19:58:21.689Z,28.60
2022-07-31T20:01:23.749Z,28.80
2022-07-31T20:04:25.964Z,29.00
2022-07-31T20:07:32.569Z,29.20
2022-07-31T20:10:35.195Z,29.20
2022-07-31T20:13:38.640Z,29.10
2022-07-31T20:16:40.991Z,29.40
2022-07-31T20:20:14.737Z,29.50
2022-07-31T20:23:06.086Z,29.70
2022-07-31T20:26:12.681Z,29.80
2022-07-31T20:29:14.793Z,29.80
2022-07-31T20:32:16.723Z,30.00
2022-07-31T20:35:45.550Z,30.00
2022-07-31T20:38:47.745Z,30.00
2022-07-31T20:41:49.853Z,30.00
2022-07-31T20:44:51.872Z,30.10
2022-07-31T20:47:56.616Z,30.20
2022-07-31T20:51:03.660Z,30.40
2022-07-31T20:54:06.053Z,30.50
2022-07-31T20:57:08.081Z,30.30
2022-07-31T21:00:11.604Z,30.50
2022-07-31T21:03:14.207Z,30.50
2022-07-31T21:06:16.595Z,30.50
2022-07-31T21:09:18.909Z,30.50
2022-07-31T21:12:21.019Z,30.50
2022-07-31T21:15:42.116Z,30.70
2022-07-31T21:18:45.728Z,30.60
2022-07-31T21:21:47.785Z,30.40
2022-07-31T21:24:50.190Z,30.50
2022-07-31T21:27:52.186Z,30.50
2022-07-31T21:30:56.423Z,30.70
2022-07-31T21:33:58.899Z,30.60
2022-07-31T21:37:01.703Z,30.60
2022-07-31T21:40:04.656Z,30.70
2022-07-31T21:43:07.618Z,30.80
2022-07-31T21:46:15.970Z,31.00
2022-07-31T21:49:22.055Z,31.20
2022-07-31T21:52:27.221Z,31.00
2022-07-31T21:55:29.369Z,31.10
2022-07-31T21:58:31.298Z,31.30
2022-07-31T22:01:33.735Z,31.30
2022-07-31T22:04:35.706Z,31.50
2022-07-31T22:07:44.572Z,31.40
2022-07-31T22:10:47.296Z,31.30
2022-07-31T22:13:49.505Z,31.10
2022-07-31T22:16:51.464Z,30.80
2022-07-31T22:19:58.559Z,30.90
2022-07-31T22:23:00.678Z,31.10
2022-07-31T22:26:03.869Z,31.10
2022-07-31T22:29:06.043Z,31.20
2022-07-31T22:32:08.909Z,31.20
2022-07-31T22:35:12.648Z,31.10
2022-07-31T22:38:15.941Z,31.10
2022-07-31T22:41:17.899Z,31.40
2022-07-31T22:44:23.087Z,31.40
2022-07-31T22:47:27.155Z,31.00
2022-07-31T22:50:29.434Z,31.10
2022-07-31T22:53:31.436Z,31.20
2022-07-31T22:56:33.584Z,31.40
2022-07-31T22:59:35.559Z,31.30
2022-07-31T23:02:38.024Z,31.30
2022-07-31T23:06:02.759Z,31.30
2022-07-31T23:09:02.435Z,31.30
2022-07-31T23:12:04.958Z,31.20
2022-07-31T23:15:07.595Z,31.20
2022-07-31T23:18:10.568Z,31.00
2022-07-31T23:21:12.839Z,31.00
2022-07-31T23:24:14.767Z,31.20
2022-07-31T23:27:17.017Z,31.90
2022-07-31T23:30:18.998Z,31.40
2022-07-31T23:33:21.121Z,31.80
2022-07-31T23:36:23.254Z,31.10
2022-07-31T23:39:25.485Z,31.20
2022-07-31T23:42:39.552Z,31.20
2022-07-31T23:45:41.760Z,31.40
2022-07-31T23:48:46.039Z,31.60
2022-07-31T23:51:48.201Z,31.70
2022-07-31T23:54:50.185Z,31.90
2022-07-31T23:57:52.255Z,31.80
